createdAt,value
2017-04-18T00:01:17.969Z,0
2017-04-18T00:02:18.192Z,0
2017-04-18T00:03:18.129Z,0
2017-04-18T00:04:17.767Z,0
2017-04-18T00:05:18.011Z,0
2017-04-18T00:06:17.972Z,0
2017-04-18T00:07:17.596Z,0
2017-04-18T00:08:17.811Z,0
2017-04-18T00:09:17.749Z,0
2017-04-18T00:10:17.681Z,0
2017-04-18T00:11:17.901Z,0
2017-04-18T00:12:17.556Z,0
2017-04-18T00:13:17.493Z,0
2017-04-18T00:14:17.433Z,0
2017-04-18T00:15:17.363Z,0
2017-04-18T00:16:17.302Z,0
2017-04-18T00:17:16.941Z,0
2017-04-18T00:18:17.174Z,0
2017-04-18T00:19:17.121Z,0
2017-04-18T00:20:17.051Z,0
2017-04-18T00:21:16.985Z,0
2017-04-18T00:22:16.918Z,0
2017-04-18T00:23:16.862Z,0
2017-04-18T00:24:16.795Z,0
2017-04-18T00:25:16.729Z,0
2017-04-18T00:26:16.359Z,0
2017-04-18T00:27:16.601Z,0
2017-04-18T00:28:16.543Z,0
2017-04-18T00:29:16.471Z,0
2017-04-18T00:30:16.410Z,0
2017-04-18T00:31:16.342Z,0
2017-04-18T00:32:16.283Z,0
2017-04-18T00:33:16.221Z,0
2017-04-18T00:34:16.153Z,0
2017-04-18T00:35:16.088Z,0
2017-04-18T00:36:16.024Z,0
2017-04-18T00:37:15.958Z,0
2017-04-18T00:38:15.901Z,0
2017-04-18T00:39:15.838Z,0
2017-04-18T00:40:15.775Z,0
2017-04-18T00:41:15.707Z,0
2017-04-18T00:42:15.339Z,0
2017-04-18T00:43:15.280Z,0
2017-04-18T00:44:15.515Z,0
2017-04-18T00:45:15.454Z,0
2017-04-18T00:46:15.387Z,0
2017-04-18T00:47:15.325Z,0
2017-04-18T00:48:15.262Z,0
2017-04-18T00:49:15.197Z,0
2017-04-18T00:50:15.138Z,0
2017-04-18T00:51:15.075Z,0
2017-04-18T00:52:15.005Z,0
2017-04-18T00:53:14.955Z,0
2017-04-18T00:54:14.580Z,0
2017-04-18T00:55:14.814Z,0
2017-04-18T00:56:14.755Z,0
2017-04-18T00:57:14.684Z,0
2017-04-18T00:58:14.320Z,0
2017-04-18T00:59:14.638Z,0
2017-04-18T01:00:14.496Z,0
2017-04-18T01:01:14.432Z,0
2017-04-18T01:02:14.071Z,0
2017-04-18T01:03:14.307Z,0
2017-04-18T01:04:14.240Z,0
2017-04-18T01:05:13.874Z,0
2017-04-18T01:06:14.114Z,0
2017-04-18T01:07:14.055Z,0
2017-04-18T01:08:13.685Z,0
2017-04-18T01:09:13.921Z,0
2017-04-18T01:10:13.859Z,0
2017-04-18T01:11:13.556Z,0
2017-04-18T01:12:13.740Z,0
2017-04-18T01:13:13.691Z,0
2017-04-18T01:14:13.312Z,0
2017-04-18T01:15:13.548Z,0
2017-04-18T01:16:13.486Z,0
2017-04-18T01:17:13.114Z,0
2017-04-18T01:18:13.349Z,0
2017-04-18T01:19:13.288Z,0
2017-04-18T01:20:13.218Z,0
2017-04-18T01:21:13.157Z,0
2017-04-18T01:22:12.792Z,0
2017-04-18T01:23:13.030Z,0
2017-04-18T01:24:13.084Z,0
2017-04-18T01:25:12.905Z,0
2017-04-18T01:26:12.533Z,0
2017-04-18T01:27:12.771Z,0
2017-04-18T01:28:12.708Z,0
2017-04-18T01:29:12.648Z,0
2017-04-18T01:30:12.280Z,0
2017-04-18T01:31:12.516Z,0
2017-04-18T01:32:12.458Z,0
2017-04-18T01:33:12.395Z,0
2017-04-18T01:34:12.031Z,0
2017-04-18T01:35:12.264Z,0
2017-04-18T01:36:12.201Z,0
2017-04-18T01:37:12.136Z,0
2017-04-18T01:38:12.080Z,0
2017-04-18T01:39:12.010Z,0
2017-04-18T01:40:11.949Z,0
2017-04-18T01:41:11.881Z,0
2017-04-18T01:42:11.818Z,0
2017-04-18T01:43:11.757Z,0
2017-04-18T01:44:11.694Z,0
2017-04-18T01:45:11.626Z,0
2017-04-18T01:46:11.560Z,0
2017-04-18T01:47:11.497Z,0
2017-04-18T01:48:11.437Z,0
2017-04-18T01:49:11.375Z,0
2017-04-18T01:50:11.316Z,0
2017-04-18T01:51:11.245Z,0
2017-04-18T01:52:10.882Z,0
2017-04-18T01:53:11.114Z,0
2017-04-18T01:54:11.054Z,0
2017-04-18T01:55:10.988Z,0
2017-04-18T01:56:10.923Z,0
2017-04-18T01:57:10.862Z,0
2017-04-18T01:58:11.126Z,0
2017-04-18T01:59:10.737Z,0
2017-04-18T02:00:10.066Z,0
2017-04-18T02:01:10.610Z,0
2017-04-18T02:02:09.944Z,0
2017-04-18T02:03:10.478Z,0
2017-04-18T02:04:10.416Z,0
2017-04-18T02:05:10.050Z,0
2017-04-18T02:06:10.659Z,0
2017-04-18T02:07:09.922Z,0
2017-04-18T02:08:10.169Z,0
2017-04-18T02:09:10.105Z,0
2017-04-18T02:10:09.737Z,0
2017-04-18T02:11:09.970Z,0
2017-04-18T02:12:09.907Z,0
2017-04-18T02:13:09.850Z,0
2017-04-18T02:14:09.818Z,0
2017-04-18T02:15:09.712Z,0
2017-04-18T02:16:09.352Z,0
2017-04-18T02:17:09.586Z,0
2017-04-18T02:18:09.523Z,0
2017-04-18T02:19:09.456Z,0
2017-04-18T02:20:09.393Z,0
2017-04-18T02:21:09.333Z,0
2017-04-18T02:22:08.681Z,0
2017-04-18T02:23:09.206Z,0
2017-04-18T02:24:09.142Z,0
2017-04-18T02:25:09.081Z,0
2017-04-18T02:26:09.018Z,0
2017-04-18T02:27:08.650Z,0
2017-04-18T02:28:08.883Z,0
2017-04-18T02:29:08.822Z,0
2017-04-18T02:30:08.453Z,0
2017-04-18T02:31:08.631Z,0
2017-04-18T02:32:08.630Z,0
2017-04-18T02:33:08.570Z,0
2017-04-18T02:34:08.203Z,0
2017-04-18T02:35:08.149Z,0
2017-04-18T02:36:08.384Z,0
2017-04-18T02:37:08.334Z,0
2017-04-18T02:38:08.265Z,0
2017-04-18T02:39:08.189Z,0
2017-04-18T02:40:08.126Z,0
2017-04-18T02:41:08.057Z,0
2017-04-18T02:42:07.995Z,0
2017-04-18T02:43:07.926Z,0
2017-04-18T02:44:07.560Z,0
2017-04-18T02:45:07.797Z,0
2017-04-18T02:46:07.735Z,0
2017-04-18T02:47:07.371Z,0
2017-04-18T02:48:07.607Z,0
2017-04-18T02:49:07.551Z,0
2017-04-18T02:50:07.481Z,0
2017-04-18T02:51:07.447Z,0
2017-04-18T02:52:07.357Z,0
2017-04-18T02:53:07.303Z,0
2017-04-18T02:54:07.235Z,0
2017-04-18T02:55:07.241Z,0
2017-04-18T02:56:07.105Z,0
2017-04-18T02:57:07.038Z,0
2017-04-18T02:58:06.973Z,0
2017-04-18T02:59:06.914Z,0
2017-04-18T03:00:06.846Z,0
2017-04-18T03:01:06.786Z,0
2017-04-18T03:02:06.733Z,0
2017-04-18T03:03:06.696Z,0
2017-04-18T03:04:06.593Z,0
2017-04-18T03:05:06.546Z,0
2017-04-18T03:06:06.174Z,0
2017-04-18T03:07:06.397Z,0
2017-04-18T03:08:06.335Z,0
2017-04-18T03:09:06.269Z,0
2017-04-18T03:10:06.222Z,0
2017-04-18T03:11:06.149Z,0
2017-04-18T03:12:06.079Z,0
2017-04-18T03:13:06.015Z,0
2017-04-18T03:14:05.957Z,0
2017-04-18T03:15:05.904Z,0
2017-04-18T03:16:05.822Z,0
2017-04-18T03:17:05.764Z,0
2017-04-18T03:18:05.695Z,0
2017-04-18T03:19:05.635Z,0
2017-04-18T03:20:05.570Z,0
2017-04-18T03:21:05.506Z,0
2017-04-18T03:22:05.442Z,0
2017-04-18T03:23:05.382Z,0
2017-04-18T03:24:05.353Z,0
2017-04-18T03:25:05.252Z,0
2017-04-18T03:26:05.190Z,0
2017-04-18T03:27:05.147Z,0
2017-04-18T03:28:05.068Z,0
2017-04-18T03:29:05.003Z,0
2017-04-18T03:30:04.637Z,0
2017-04-18T03:31:04.875Z,0
2017-04-18T03:32:04.806Z,0
2017-04-18T03:33:04.760Z,0
2017-04-18T03:34:04.694Z,0
2017-04-18T03:35:04.623Z,0
2017-04-18T03:36:04.718Z,0
2017-04-18T03:37:04.489Z,0
2017-04-18T03:38:04.439Z,0
2017-04-18T03:39:04.383Z,0
2017-04-18T03:40:04.317Z,0
2017-04-18T03:41:03.946Z,0
2017-04-18T03:42:04.176Z,0
2017-04-18T03:43:04.125Z,0
2017-04-18T03:44:04.066Z,0
2017-04-18T03:45:03.991Z,0
2017-04-18T03:46:03.941Z,0
2017-04-18T03:47:03.569Z,0
2017-04-18T03:48:03.786Z,0
2017-04-18T03:49:03.732Z,0
2017-04-18T03:50:03.387Z,0
2017-04-18T03:51:03.596Z,0
2017-04-18T03:52:03.536Z,0
2017-04-18T03:53:03.508Z,0
2017-04-18T03:54:03.416Z,0
2017-04-18T03:55:03.059Z,0
2017-04-18T03:56:02.996Z,0
2017-04-18T03:57:03.209Z,0
2017-04-18T03:58:03.161Z,0
2017-04-18T03:59:03.089Z,0
2017-04-18T04:00:03.219Z,0
2017-04-18T04:01:02.974Z,0
2017-04-18T04:02:02.906Z,0
2017-04-18T04:03:02.843Z,0
2017-04-18T04:04:02.768Z,0
2017-04-18T04:05:02.400Z,0
2017-04-18T04:06:02.651Z,0
2017-04-18T04:07:02.575Z,0
2017-04-18T04:08:02.514Z,0
2017-04-18T04:09:02.456Z,4
2017-04-18T04:10:02.396Z,4
2017-04-18T04:11:02.316Z,4
2017-04-18T04:12:02.257Z,4
2017-04-18T04:13:02.190Z,4
2017-04-18T04:14:02.126Z,4
2017-04-18T04:15:01.766Z,4
2017-04-18T04:16:01.997Z,4
2017-04-18T04:17:01.934Z,4
2017-04-18T04:18:01.913Z,4
2017-04-18T04:19:01.506Z,4
2017-04-18T04:20:01.749Z,4
2017-04-18T04:21:01.684Z,4
2017-04-18T04:22:01.618Z,4
2017-04-18T04:23:01.554Z,4
2017-04-18T04:24:01.497Z,4
2017-04-18T04:25:01.428Z,4
2017-04-18T04:26:01.464Z,4
2017-04-18T04:27:01.316Z,4
2017-04-18T04:28:01.244Z,4
2017-04-18T04:29:01.177Z,4
2017-04-18T04:30:01.109Z,4
2017-04-18T04:31:00.741Z,4
2017-04-18T04:32:00.679Z,4
2017-04-18T04:33:00.918Z,4
2017-04-18T04:34:00.873Z,4
2017-04-18T04:35:00.786Z,4
2017-04-18T04:36:00.724Z,4
2017-04-18T04:37:00.669Z,4
2017-04-18T04:38:00.297Z,4
2017-04-18T04:39:00.531Z,4
2017-04-18T04:40:00.466Z,4
2017-04-18T04:41:00.405Z,4
2017-04-18T04:42:00.346Z,4
2017-04-18T04:43:00.281Z,4
2017-04-18T04:44:00.218Z,4
2017-04-18T04:45:00.189Z,4
2017-04-18T04:46:00.085Z,4
2017-04-18T04:46:59.727Z,4
2017-04-18T04:47:59.963Z,4
2017-04-18T04:48:59.595Z,4
2017-04-18T04:49:59.531Z,4
2017-04-18T04:50:59.969Z,4
2017-04-18T04:51:59.720Z,4
2017-04-18T04:52:59.639Z,4
2017-04-18T04:53:59.584Z,4
2017-04-18T04:54:59.509Z,4
2017-04-18T04:55:59.146Z,4
2017-04-18T04:56:59.384Z,4
2017-04-18T04:57:58.845Z,4
2017-04-18T04:58:59.251Z,4
2017-04-18T04:59:58.885Z,4
2017-04-18T05:00:59.127Z,4
2017-04-18T05:01:59.064Z,4
2017-04-18T05:02:59.001Z,4
2017-04-18T05:03:58.934Z,4
2017-04-18T05:04:58.575Z,4
2017-04-18T05:05:58.842Z,4
2017-04-18T05:06:58.744Z,4
2017-04-18T05:07:58.371Z,4
2017-04-18T05:08:58.613Z,4
2017-04-18T05:09:58.550Z,4
2017-04-18T05:10:58.182Z,4
2017-04-18T05:11:58.423Z,4
2017-04-18T05:12:58.358Z,4
2017-04-18T05:13:57.995Z,4
2017-04-18T05:14:58.236Z,4
2017-04-18T05:15:58.171Z,4
2017-04-18T05:16:57.798Z,4
2017-04-18T05:17:58.048Z,4
2017-04-18T05:18:57.976Z,4
2017-04-18T05:19:57.918Z,8
2017-04-18T05:20:57.846Z,8
2017-04-18T05:21:57.785Z,4
2017-04-18T05:22:57.715Z,4
2017-04-18T05:23:57.658Z,4
2017-04-18T05:24:57.590Z,4
2017-04-18T05:25:57.521Z,8
2017-04-18T05:26:57.459Z,8
2017-04-18T05:27:57.396Z,8
2017-04-18T05:28:57.735Z,8
2017-04-18T05:29:57.271Z,8
2017-04-18T05:30:56.903Z,8
2017-04-18T05:31:57.148Z,8
2017-04-18T05:32:57.078Z,8
2017-04-18T05:33:57.013Z,8
2017-04-18T05:34:56.943Z,8
2017-04-18T05:35:56.883Z,8
2017-04-18T05:36:56.967Z,8
2017-04-18T05:37:56.757Z,4
2017-04-18T05:38:56.691Z,4
2017-04-18T05:39:56.624Z,4
2017-04-18T05:40:56.595Z,4
2017-04-18T05:41:56.495Z,4
2017-04-18T05:42:56.436Z,4
2017-04-18T05:43:56.071Z,8
2017-04-18T05:44:56.015Z,8
2017-04-18T05:45:56.240Z,4
2017-04-18T05:46:56.186Z,8
2017-04-18T05:47:56.120Z,8
2017-04-18T05:48:56.058Z,8
2017-04-18T05:49:55.985Z,12
2017-04-18T05:50:55.943Z,12
2017-04-18T05:51:55.969Z,12
2017-04-18T05:52:55.498Z,12
2017-04-18T05:53:55.737Z,12
2017-04-18T05:54:55.672Z,12
2017-04-18T05:55:55.603Z,12
2017-04-18T05:56:55.539Z,12
2017-04-18T05:57:55.478Z,12
2017-04-18T05:58:55.409Z,12
2017-04-18T05:59:55.349Z,12
2017-04-18T06:00:55.282Z,12
2017-04-18T06:01:54.934Z,12
2017-04-18T06:02:55.163Z,12
2017-04-18T06:03:55.095Z,12
2017-04-18T06:04:55.039Z,12
2017-04-18T06:05:54.958Z,12
2017-04-18T06:06:54.944Z,12
2017-04-18T06:07:54.941Z,12
2017-04-18T06:08:54.771Z,12
2017-04-18T06:09:54.715Z,12
2017-04-18T06:10:54.358Z,12
2017-04-18T06:11:54.577Z,16
2017-04-18T06:12:54.221Z,12
2017-04-18T06:13:54.448Z,16
2017-04-18T06:14:54.381Z,16
2017-04-18T06:15:54.377Z,12
2017-04-18T06:16:54.256Z,16
2017-04-18T06:17:54.192Z,16
2017-04-18T06:18:54.130Z,12
2017-04-18T06:19:53.759Z,16
2017-04-18T06:20:53.997Z,16
2017-04-18T06:21:53.935Z,16
2017-04-18T06:22:54.081Z,12
2017-04-18T06:23:53.806Z,16
2017-04-18T06:24:53.822Z,16
2017-04-18T06:25:53.681Z,24
2017-04-18T06:26:53.621Z,24
2017-04-18T06:27:53.551Z,24
2017-04-18T06:28:53.183Z,24
2017-04-18T06:29:53.423Z,24
2017-04-18T06:30:53.352Z,24
2017-04-18T06:31:53.294Z,24
2017-04-18T06:32:53.234Z,24
2017-04-18T06:33:53.163Z,24
2017-04-18T06:34:53.099Z,24
2017-04-18T06:35:53.034Z,24
2017-04-18T06:36:52.971Z,24
2017-04-18T06:37:52.913Z,24
2017-04-18T06:38:52.844Z,20
2017-04-18T06:39:52.782Z,24
2017-04-18T06:40:52.716Z,28
2017-04-18T06:41:51.742Z,28
2017-04-18T06:42:52.586Z,28
2017-04-18T06:43:52.521Z,28
2017-04-18T06:44:52.164Z,36
2017-04-18T06:45:52.398Z,32
2017-04-18T06:46:52.028Z,36
2017-04-18T06:47:52.269Z,36
2017-04-18T06:48:52.220Z,40
2017-04-18T06:49:52.139Z,40
2017-04-18T06:50:52.075Z,36
2017-04-18T06:51:51.113Z,36
2017-04-18T06:52:51.954Z,40
2017-04-18T06:53:51.910Z,44
2017-04-18T06:54:51.821Z,48
2017-04-18T06:55:51.749Z,44
2017-04-18T06:56:51.695Z,36
2017-04-18T06:57:51.623Z,32
2017-04-18T06:58:51.264Z,28
2017-04-18T06:59:51.497Z,24
2017-04-18T07:00:51.429Z,24
2017-04-18T07:01:50.472Z,20
2017-04-18T07:02:51.057Z,24
2017-04-18T07:03:51.244Z,24
2017-04-18T07:04:51.593Z,24
2017-04-18T07:05:51.670Z,24
2017-04-18T07:06:51.470Z,24
2017-04-18T07:07:51.015Z,28
2017-04-18T07:08:51.179Z,24
2017-04-18T07:09:50.854Z,28
2017-04-18T07:10:50.990Z,28
2017-04-18T07:11:49.817Z,36
2017-04-18T07:12:49.758Z,32
2017-04-18T07:13:50.595Z,36
2017-04-18T07:14:49.939Z,36
2017-04-18T07:15:50.616Z,40
2017-04-18T07:16:50.403Z,40
2017-04-18T07:17:50.339Z,36
2017-04-18T07:18:50.278Z,36
2017-04-18T07:19:50.244Z,36
2017-04-18T07:20:50.247Z,36
2017-04-18T07:21:49.479Z,36
2017-04-18T07:22:49.124Z,32
2017-04-18T07:23:49.662Z,36
2017-04-18T07:24:49.892Z,32
2017-04-18T07:25:49.836Z,28
2017-04-18T07:26:49.460Z,24
2017-04-18T07:27:49.699Z,28
2017-04-18T07:28:49.040Z,24
2017-04-18T07:29:49.269Z,20
2017-04-18T07:30:49.200Z,24
2017-04-18T07:31:49.442Z,20
2017-04-18T07:32:48.473Z,24
2017-04-18T07:33:48.406Z,24
2017-04-18T07:34:48.342Z,24
2017-04-18T07:35:48.890Z,28
2017-04-18T07:36:48.816Z,28
2017-04-18T07:37:48.760Z,28
2017-04-18T07:38:48.692Z,28
2017-04-18T07:39:48.936Z,32
2017-04-18T07:40:48.861Z,32
2017-04-18T07:41:47.891Z,32
2017-04-18T07:42:47.981Z,32
2017-04-18T07:43:48.385Z,36
2017-04-18T07:44:47.694Z,36
2017-04-18T07:45:47.637Z,36
2017-04-18T07:46:48.178Z,36
2017-04-18T07:47:47.808Z,40
2017-04-18T07:48:48.352Z,44
2017-04-18T07:49:48.293Z,48
2017-04-18T07:50:47.918Z,52
2017-04-18T07:51:47.548Z,48
2017-04-18T07:52:47.829Z,44
2017-04-18T07:53:47.430Z,40
2017-04-18T07:54:47.666Z,40
2017-04-18T07:55:47.727Z,36
2017-04-18T07:56:47.550Z,36
2017-04-18T07:57:47.169Z,36
2017-04-18T07:58:47.405Z,32
2017-04-18T07:59:46.789Z,28
2017-04-18T08:00:47.552Z,32
2017-04-18T08:01:46.907Z,28
2017-04-18T08:02:47.147Z,32
2017-04-18T08:03:46.781Z,32
2017-04-18T08:04:47.021Z,36
2017-04-18T08:05:46.756Z,32
2017-04-18T08:06:47.232Z,32
2017-04-18T08:07:46.529Z,32
2017-04-18T08:08:46.766Z,36
2017-04-18T08:09:46.714Z,36
2017-04-18T08:10:46.734Z,32
2017-04-18T08:11:46.873Z,32
2017-04-18T08:12:46.818Z,32
2017-04-18T08:13:46.460Z,36
2017-04-18T08:14:46.683Z,32
2017-04-18T08:15:46.722Z,32
2017-04-18T08:16:46.249Z,36
2017-04-18T08:17:46.193Z,40
2017-04-18T08:18:46.437Z,44
2017-04-18T08:19:46.061Z,52
2017-04-18T08:20:45.890Z,56
2017-04-18T08:21:46.233Z,76
2017-04-18T08:22:46.172Z,76
2017-04-18T08:23:46.118Z,72
2017-04-18T08:24:45.732Z,72
2017-04-18T08:25:45.673Z,76
2017-04-18T08:26:45.607Z,68
2017-04-18T08:27:45.238Z,60
2017-04-18T08:28:45.797Z,52
2017-04-18T08:29:45.714Z,52
2017-04-18T08:30:45.352Z,68
2017-04-18T08:31:45.586Z,72
2017-04-18T08:32:44.918Z,64
2017-04-18T08:33:45.158Z,68
2017-04-18T08:34:44.790Z,72
2017-04-18T08:35:44.724Z,156
2017-04-18T08:36:45.267Z,188
2017-04-18T08:37:45.203Z,204
2017-04-18T08:38:45.145Z,204
2017-04-18T08:39:44.466Z,212
2017-04-18T08:40:45.010Z,220
2017-04-18T08:41:44.642Z,224
2017-04-18T08:42:44.876Z,212
2017-04-18T08:43:45.084Z,212
2017-04-18T08:44:44.753Z,212
2017-04-18T08:45:44.392Z,200
2017-04-18T08:46:44.331Z,204
2017-04-18T08:47:44.566Z,212
2017-04-18T08:48:44.497Z,212
2017-04-18T08:49:44.131Z,212
2017-04-18T08:50:43.759Z,204
2017-04-18T08:51:44.004Z,188
2017-04-18T08:52:44.236Z,184
2017-04-18T08:53:43.581Z,184
2017-04-18T08:54:43.205Z,196
2017-04-18T08:55:43.864Z,220
2017-04-18T08:56:43.373Z,208
2017-04-18T08:57:43.038Z,216
2017-04-18T08:58:43.558Z,212
2017-04-18T08:59:43.489Z,216
2017-04-18T09:00:43.823Z,220
2017-04-18T09:01:43.355Z,224
2017-04-18T09:02:43.601Z,224
2017-04-18T09:03:43.231Z,216
2017-04-18T09:04:43.464Z,220
2017-04-18T09:05:43.703Z,208
2017-04-18T09:06:43.038Z,208
2017-04-18T09:07:43.287Z,228
2017-04-18T09:08:43.212Z,220
2017-04-18T09:09:42.544Z,208
2017-04-18T09:10:42.735Z,200
2017-04-18T09:11:43.021Z,176
2017-04-18T09:12:42.653Z,172
2017-04-18T09:13:42.586Z,168
2017-04-18T09:14:42.863Z,176
2017-04-18T09:15:42.766Z,180
2017-04-18T09:16:42.395Z,192
2017-04-18T09:17:42.339Z,180
2017-04-18T09:18:42.282Z,168
2017-04-18T09:19:42.636Z,172
2017-04-18T09:20:42.443Z,180
2017-04-18T09:21:42.078Z,180
2017-04-18T09:22:42.315Z,184
2017-04-18T09:23:42.249Z,180
2017-04-18T09:24:41.581Z,172
2017-04-18T09:25:42.122Z,180
2017-04-18T09:26:42.060Z,188
2017-04-18T09:27:41.994Z,188
2017-04-18T09:28:42.121Z,184
2017-04-18T09:29:41.567Z,180
2017-04-18T09:30:41.802Z,176
2017-04-18T09:31:41.465Z,164
2017-04-18T09:32:41.683Z,180
2017-04-18T09:33:41.614Z,200
2017-04-18T09:34:40.945Z,204
2017-04-18T09:35:40.878Z,204
2017-04-18T09:36:41.130Z,196
2017-04-18T09:37:41.364Z,192
2017-04-18T09:38:41.310Z,192
2017-04-18T09:39:41.229Z,188
2017-04-18T09:40:41.166Z,196
2017-04-18T09:41:40.818Z,184
2017-04-18T09:42:40.734Z,184
2017-04-18T09:43:40.978Z,180
2017-04-18T09:44:40.956Z,184
2017-04-18T09:45:40.672Z,176
2017-04-18T09:46:40.705Z,164
2017-04-18T09:47:40.453Z,164
2017-04-18T09:48:40.693Z,168
2017-04-18T09:49:40.294Z,160
2017-04-18T09:50:40.631Z,160
2017-04-18T09:51:39.857Z,160
2017-04-18T09:52:40.092Z,160
2017-04-18T09:53:40.031Z,160
2017-04-18T09:54:40.268Z,164
2017-04-18T09:55:40.159Z,164
2017-04-18T09:56:40.141Z,172
2017-04-18T09:57:40.077Z,180
2017-04-18T09:58:39.711Z,188
2017-04-18T09:59:39.950Z,188
2017-04-18T10:00:39.816Z,200
2017-04-18T10:01:39.822Z,204
2017-04-18T10:02:39.761Z,192
2017-04-18T10:03:39.165Z,216
2017-04-18T10:04:39.747Z,72
2017-04-18T10:05:39.569Z,72
2017-04-18T10:06:39.500Z,64
2017-04-18T10:07:39.442Z,100
2017-04-18T10:08:39.076Z,68
2017-04-18T10:09:39.313Z,96
2017-04-18T10:10:39.252Z,96
2017-04-18T10:11:38.938Z,56
2017-04-18T10:12:39.125Z,56
2017-04-18T10:13:38.941Z,76
2017-04-18T10:14:38.991Z,92
2017-04-18T10:15:38.932Z,48
2017-04-18T10:16:38.870Z,52
2017-04-18T10:17:38.498Z,72
2017-04-18T10:18:38.748Z,52
2017-04-18T10:19:38.677Z,72
2017-04-18T10:20:38.815Z,92
2017-04-18T10:21:38.701Z,92
2017-04-18T10:22:38.633Z,68
2017-04-18T10:23:38.426Z,68
2017-04-18T10:24:38.058Z,84
2017-04-18T10:25:38.323Z,88
2017-04-18T10:26:38.240Z,60
2017-04-18T10:27:38.212Z,68
2017-04-18T10:28:38.102Z,76
2017-04-18T10:29:38.037Z,60
2017-04-18T10:30:38.164Z,68
2017-04-18T10:31:37.912Z,68
2017-04-18T10:32:38.054Z,60
2017-04-18T10:33:37.179Z,72
2017-04-18T10:34:37.720Z,48
2017-04-18T10:35:37.662Z,52
2017-04-18T10:36:37.591Z,48
2017-04-18T10:37:37.528Z,60
2017-04-18T10:38:37.164Z,92
2017-04-18T10:39:37.102Z,96
2017-04-18T10:40:37.572Z,92
2017-04-18T10:41:36.672Z,96
2017-04-18T10:42:37.260Z,96
2017-04-18T10:43:37.155Z,84
2017-04-18T10:44:36.783Z,44
2017-04-18T10:45:37.027Z,44
2017-04-18T10:46:36.652Z,104
2017-04-18T10:47:36.595Z,104
2017-04-18T10:48:35.925Z,104
2017-04-18T10:49:36.173Z,108
2017-04-18T10:50:36.703Z,52
2017-04-18T10:51:36.640Z,72
2017-04-18T10:52:36.272Z,72
2017-04-18T10:53:36.418Z,44
2017-04-18T10:54:36.148Z,48
2017-04-18T10:55:36.388Z,120
2017-04-18T10:56:36.329Z,68
2017-04-18T10:57:36.258Z,60
2017-04-18T10:58:36.202Z,52
2017-04-18T10:59:36.146Z,52
2017-04-18T11:00:35.772Z,100
2017-04-18T11:01:35.403Z,96
2017-04-18T11:02:35.946Z,56
2017-04-18T11:03:35.930Z,68
2017-04-18T11:04:35.222Z,44
2017-04-18T11:05:35.760Z,44
2017-04-18T11:06:35.434Z,44
2017-04-18T11:07:35.649Z,44
2017-04-18T11:08:35.270Z,48
2017-04-18T11:09:35.231Z,64
2017-04-18T11:10:35.443Z,152
2017-04-18T11:11:35.375Z,56
2017-04-18T11:12:35.309Z,64
2017-04-18T11:13:34.942Z,156
2017-04-18T11:14:34.575Z,56
2017-04-18T11:15:34.908Z,52
2017-04-18T11:16:35.054Z,60
2017-04-18T11:17:34.741Z,60
2017-04-18T11:18:34.655Z,52
2017-04-18T11:19:34.578Z,48
2017-04-18T11:20:34.614Z,52
2017-04-18T11:21:34.126Z,156
2017-04-18T11:22:34.387Z,156
2017-04-18T11:23:34.617Z,152
2017-04-18T11:24:33.964Z,152
2017-04-18T11:25:34.335Z,160
2017-04-18T11:26:34.422Z,56
2017-04-18T11:27:34.086Z,52
2017-04-18T11:28:33.995Z,48
2017-04-18T11:29:34.247Z,48
2017-04-18T11:30:33.872Z,52
2017-04-18T11:31:34.101Z,52
2017-04-18T11:32:34.033Z,116
2017-04-18T11:33:33.985Z,64
2017-04-18T11:34:33.627Z,152
2017-04-18T11:35:33.563Z,132
2017-04-18T11:36:33.479Z,116
2017-04-18T11:37:33.125Z,84
2017-04-18T11:38:33.715Z,176
2017-04-18T11:39:33.319Z,172
2017-04-18T11:40:33.249Z,160
2017-04-18T11:41:33.470Z,100
2017-04-18T11:42:33.395Z,160
2017-04-18T11:43:33.032Z,128
2017-04-18T11:44:33.276Z,44
2017-04-18T11:45:33.205Z,32
2017-04-18T11:46:33.189Z,32
2017-04-18T11:47:33.196Z,28
2017-04-18T11:48:33.017Z,28
2017-04-18T11:49:32.950Z,28
2017-04-18T11:50:32.898Z,32
2017-04-18T11:51:32.829Z,32
2017-04-18T11:52:32.460Z,36
2017-04-18T11:53:32.397Z,36
2017-04-18T11:54:32.633Z,36
2017-04-18T11:55:32.716Z,40
2017-04-18T11:56:32.511Z,44
2017-04-18T11:57:32.443Z,48
2017-04-18T11:58:32.101Z,48
2017-04-18T11:59:32.316Z,52
2017-04-18T12:00:31.653Z,52
2017-04-18T12:01:32.200Z,44
2017-04-18T12:02:32.128Z,140
2017-04-18T12:03:32.061Z,164
2017-04-18T12:04:31.739Z,176
2017-04-18T12:05:31.947Z,224
2017-04-18T12:06:31.873Z,200
2017-04-18T12:07:31.519Z,164
2017-04-18T12:08:31.765Z,160
2017-04-18T12:09:31.410Z,156
2017-04-18T12:10:31.630Z,156
2017-04-18T12:11:31.567Z,164
2017-04-18T12:12:31.503Z,160
2017-04-18T12:13:31.273Z,164
2017-04-18T12:14:31.372Z,164
2017-04-18T12:15:30.998Z,164
2017-04-18T12:16:31.238Z,168
2017-04-18T12:17:30.867Z,168
2017-04-18T12:18:31.135Z,168
2017-04-18T12:19:30.740Z,168
2017-04-18T12:20:30.679Z,168
2017-04-18T12:21:30.921Z,172
2017-04-18T12:22:31.235Z,172
2017-04-18T12:23:30.512Z,176
2017-04-18T12:24:30.726Z,172
2017-04-18T12:25:30.889Z,176
2017-04-18T12:26:30.865Z,172
2017-04-18T12:27:30.580Z,176
2017-04-18T12:28:29.887Z,172
2017-04-18T12:29:30.418Z,164
2017-04-18T12:30:30.866Z,160
2017-04-18T12:31:30.286Z,160
2017-04-18T12:32:29.973Z,156
2017-04-18T12:33:29.637Z,152
2017-04-18T12:34:29.804Z,156
2017-04-18T12:35:29.425Z,156
2017-04-18T12:36:29.968Z,160
2017-04-18T12:37:29.320Z,160
2017-04-18T12:38:29.701Z,164
2017-04-18T12:39:28.880Z,164
2017-04-18T12:40:29.414Z,168
2017-04-18T12:41:29.110Z,172
2017-04-18T12:42:29.371Z,176
2017-04-18T12:43:29.726Z,184
2017-04-18T12:44:29.464Z,228
2017-04-18T12:45:29.104Z,224
2017-04-18T12:46:29.059Z,212
2017-04-18T12:47:28.671Z,204
2017-04-18T12:48:28.825Z,184
2017-04-18T12:49:29.189Z,192
2017-04-18T12:50:29.103Z,200
2017-04-18T12:51:28.730Z,204
2017-04-18T12:52:28.052Z,188
2017-04-18T12:53:28.597Z,168
2017-04-18T12:54:28.870Z,168
2017-04-18T12:55:28.489Z,164
2017-04-18T12:56:28.709Z,156
2017-04-18T12:57:28.644Z,152
2017-04-18T12:58:28.581Z,148
2017-04-18T12:59:28.556Z,148
2017-04-18T13:00:28.165Z,148
2017-04-18T13:01:28.091Z,148
2017-04-18T13:02:28.339Z,148
2017-04-18T13:03:27.969Z,148
2017-04-18T13:04:28.247Z,148
2017-04-18T13:05:28.158Z,148
2017-04-18T13:06:27.175Z,144
2017-04-18T13:07:28.016Z,144
2017-04-18T13:08:27.650Z,140
2017-04-18T13:09:27.899Z,144
2017-04-18T13:10:27.530Z,140
2017-04-18T13:11:27.464Z,140
2017-04-18T13:12:27.403Z,132
2017-04-18T13:13:26.733Z,20
2017-04-18T13:14:26.966Z,20
2017-04-18T13:15:27.519Z,24
2017-04-18T13:16:27.688Z,28
2017-04-18T13:17:27.386Z,32
2017-04-18T13:18:27.323Z,28
2017-04-18T13:19:26.664Z,32
2017-04-18T13:20:27.202Z,32
2017-04-18T13:21:26.840Z,36
2017-04-18T13:22:26.477Z,32
2017-04-18T13:23:26.117Z,36
2017-04-18T13:24:26.644Z,40
2017-04-18T13:25:26.645Z,148
2017-04-18T13:26:26.518Z,188
2017-04-18T13:27:26.768Z,228
2017-04-18T13:28:26.733Z,232
2017-04-18T13:29:26.631Z,236
2017-04-18T13:30:26.689Z,236
2017-04-18T13:31:26.509Z,236
2017-04-18T13:32:25.839Z,240
2017-04-18T13:33:26.100Z,244
2017-04-18T13:34:26.155Z,240
2017-04-18T13:35:25.951Z,244
2017-04-18T13:36:25.890Z,240
2017-04-18T13:37:26.351Z,240
2017-04-18T13:38:26.069Z,240
2017-04-18T13:39:25.999Z,236
2017-04-18T13:40:25.633Z,180
2017-04-18T13:41:25.570Z,220
2017-04-18T13:42:25.519Z,172
2017-04-18T13:43:25.480Z,176
2017-04-18T13:44:24.796Z,184
2017-04-18T13:45:24.736Z,200
2017-04-18T13:46:25.619Z,152
2017-04-18T13:47:25.197Z,148
2017-04-18T13:48:25.127Z,148
2017-04-18T13:49:24.759Z,140
2017-04-18T13:50:25.008Z,140
2017-04-18T13:51:24.943Z,140
2017-04-18T13:52:24.598Z,144
2017-04-18T13:53:24.200Z,140
2017-04-18T13:54:24.469Z,144
2017-04-18T13:55:24.110Z,144
2017-04-18T13:56:24.324Z,144
2017-04-18T13:57:24.254Z,148
2017-04-18T13:58:24.795Z,148
2017-04-18T13:59:24.733Z,152
2017-04-18T14:00:24.902Z,152
2017-04-18T14:01:24.605Z,152
2017-04-18T14:02:23.950Z,152
2017-04-18T14:03:23.885Z,152
2017-04-18T14:04:23.835Z,148
2017-04-18T14:05:23.465Z,148
2017-04-18T14:06:23.384Z,144
2017-04-18T14:07:24.075Z,148
2017-04-18T14:08:24.155Z,144
2017-04-18T14:09:24.094Z,140
2017-04-18T14:10:23.736Z,140
2017-04-18T14:11:24.037Z,140
2017-04-18T14:12:23.907Z,140
2017-04-18T14:13:23.846Z,140
2017-04-18T14:14:23.504Z,140
2017-04-18T14:15:23.718Z,148
2017-04-18T14:16:23.658Z,148
2017-04-18T14:17:23.594Z,152
2017-04-18T14:18:23.226Z,152
2017-04-18T14:19:23.473Z,156